Time;durP1;ratioP1;P1;durP2;ratioP2;P2;SDS_P1;SDS_P2;PMS_P1;PMS_P2;Temp;Humidity;BMP_temperature;BMP_pressure;BME280_temperature;BME280_humidity;BME280_pressure;Samples;Min_cycle;Max_cycle;Signal;HPM_P1;HPM_P2
2023/05/20 00:01:00;;;;;;;11.93;3.65;;;;;;;13.52;61.26;101943.22;7397246;19;20011;-69
2023/05/20 00:03:29;;;;;;;5.03;4.07;;;;;;;13.49;61.54;101944.13;7397080;19;20028;-69
2023/05/20 00:05:57;;;;;;;5.00;3.80;;;;;;;13.46;61.63;101941.56;7398807;19;20031;-68
2023/05/20 00:08:26;;;;;;;4.70;4.13;;;;;;;13.45;61.73;101953.00;7398834;19;20031;-70
2023/05/20 00:10:57;;;;;;;7.78;4.30;;;;;;;13.41;61.91;101951.28;7398653;19;20111;-70
2023/05/20 00:13:25;;;;;;;5.47;4.40;;;;;;;13.40;61.99;101946.06;7397330;19;20513;-70
2023/05/20 00:15:54;;;;;;;7.15;4.85;;;;;;;13.38;62.29;101945.19;7398100;19;20553;-70
2023/05/20 00:18:23;;;;;;;5.85;4.80;;;;;;;13.34;62.34;101936.41;7398389;19;20017;-71
2023/05/20 00:20:53;;;;;;;6.70;4.88;;;;;;;13.33;62.36;101942.59;7398359;19;20014;-70
2023/05/20 00:23:21;;;;;;;5.18;4.60;;;;;;;13.31;62.67;101944.38;7397049;19;20018;-70
2023/05/20 00:25:50;;;;;;;6.05;4.53;;;;;;;13.28;62.63;101936.50;7398197;19;20024;-72
2023/05/20 00:28:22;;;;;;;6.75;5.22;;;;;;;13.26;62.95;101939.16;7398098;19;20015;-70
2023/05/20 00:30:51;;;;;;;10.25;5.47;;;;;;;13.25;62.99;101936.56;7397831;19;20018;-70
2023/05/20 00:33:19;;;;;;;5.97;4.45;;;;;;;13.22;63.12;101921.66;7397259;19;20026;-69
2023/05/20 00:35:48;;;;;;;8.38;4.80;;;;;;;13.21;63.03;101938.38;7397529;19;20489;-70
2023/05/20 00:38:16;;;;;;;10.27;4.97;;;;;;;13.19;63.46;101924.31;7396178;19;20016;-70
2023/05/20 00:40:45;;;;;;;9.52;5.10;;;;;;;13.15;63.43;101928.75;7397275;19;20379;-71
2023/05/20 00:43:13;;;;;;;8.45;5.15;;;;;;;13.11;63.55;101932.34;7396214;19;20379;-71
2023/05/20 00:45:44;;;;;;;8.20;5.70;;;;;;;13.11;63.80;101926.22;7397176;19;20502;-73
2023/05/20 00:48:13;;;;;;;7.57;4.55;;;;;;;13.09;63.83;101931.50;7397234;19;20027;-75
2023/05/20 00:50:42;;;;;;;6.88;5.40;;;;;;;13.07;64.01;101924.47;7397552;19;20074;-68
2023/05/20 00:53:11;;;;;;;6.57;5.20;;;;;;;13.03;63.97;101921.91;7396768;19;20031;-72
2023/05/20 00:55:40;;;;;;;9.27;5.38;;;;;;;13.03;64.29;101931.59;7397191;19;20035;-70
2023/05/20 00:58:08;;;;;;;8.32;5.70;;;;;;;13.01;64.24;101933.34;7396802;19;20102;-71
2023/05/20 01:00:37;;;;;;;6.85;4.70;;;;;;;13.00;64.41;101923.69;7396645;19;20383;-70
2023/05/20 01:03:08;;;;;;;6.20;4.55;;;;;;;12.99;64.49;101921.97;7396268;19;20107;-70
2023/05/20 01:05:36;;;;;;;7.70;5.70;;;;;;;12.97;64.61;101919.34;7396968;19;20018;-70
2023/05/20 01:08:05;;;;;;;6.80;4.40;;;;;;;12.97;64.69;101921.13;7396708;19;20014;-70
2023/05/20 01:10:36;;;;;;;8.77;5.30;;;;;;;12.95;64.94;101918.47;7396337;19;20014;-70
2023/05/20 01:13:10;;;;;;;7.13;5.32;;;;;;;12.90;64.97;101912.41;7397080;19;20029;-68
2023/05/20 01:15:41;;;;;;;7.32;5.45;;;;;;;12.93;64.99;101920.28;7396672;19;20014;-68
2023/05/20 01:18:17;;;;;;;9.43;5.68;;;;;;;12.91;65.37;101915.94;7396904;19;20015;-68
2023/05/20 01:20:47;;;;;;;11.98;5.72;;;;;;;12.86;65.30;101916.88;7396862;19;20015;-69
2023/05/20 01:23:18;;;;;;;8.30;5.07;;;;;;;12.85;65.45;101914.22;7395540;19;20081;-69
2023/05/20 01:25:46;;;;;;;8.13;5.00;;;;;;;12.82;65.30;101912.50;7395937;19;20014;-66
2023/05/20 01:28:16;;;;;;;6.93;5.43;;;;;;;12.81;65.56;101912.53;7396100;19;20082;-67
2023/05/20 01:30:51;;;;;;;9.80;5.10;;;;;;;12.79;65.68;101911.66;7396468;19;20019;-68
2023/05/20 01:33:22;;;;;;;10.95;5.72;;;;;;;12.79;65.60;101911.66;7395708;19;20018;-68
2023/05/20 01:35:51;;;;;;;9.20;5.68;;;;;;;12.76;65.91;101907.31;7395880;19;20377;-68
2023/05/20 01:38:23;;;;;;;7.93;5.13;;;;;;;12.75;65.74;101908.22;7394226;19;20360;-68
2023/05/20 01:40:52;;;;;;;7.13;5.25;;;;;;;12.73;65.84;101903.88;7396276;19;20015;-67
2023/05/20 01:43:22;;;;;;;8.38;5.43;;;;;;;12.71;65.97;101904.75;7395001;19;20032;-67
2023/05/20 01:45:50;;;;;;;9.95;5.00;;;;;;;12.72;66.09;101916.16;7395663;19;20019;-67
2023/05/20 01:48:19;;;;;;;10.00;5.38;;;;;;;12.72;66.03;101905.63;7395601;19;20010;-67
2023/05/20 01:50:47;;;;;;;7.85;5.30;;;;;;;12.71;66.36;101917.03;7395167;19;20021;-67
2023/05/20 01:53:16;;;;;;;6.35;4.68;;;;;;;12.69;66.28;101913.56;7394772;19;20018;-67
2023/05/20 01:55:47;;;;;;;7.22;5.82;;;;;;;12.68;66.41;101924.97;7395415;19;20019;-67
2023/05/20 01:58:15;;;;;;;9.77;5.72;;;;;;;12.66;66.31;101910.94;7395750;19;20018;-67
2023/05/20 02:00:44;;;;;;;6.22;5.47;;;;;;;12.63;66.52;101906.59;7395263;19;20023;-67
2023/05/20 02:03:12;;;;;;;6.97;5.05;;;;;;;12.62;66.58;101907.47;7394472;19;20018;-67
2023/05/20 02:05:41;;;;;;;7.32;4.75;;;;;;;12.63;66.75;101913.63;7395100;19;20027;-67
2023/05/20 02:08:09;;;;;;;8.07;4.85;;;;;;;12.60;66.68;101911.03;7395018;19;20014;-67
2023/05/20 02:10:38;;;;;;;6.93;4.95;;;;;;;12.59;66.77;101904.91;7394607;19;20018;-67
2023/05/20 02:13:09;;;;;;;7.47;4.90;;;;;;;12.58;66.89;101907.56;7393942;19;20035;-67
2023/05/20 02:15:37;;;;;;;6.88;4.72;;;;;;;12.55;66.89;101911.94;7395010;19;20014;-67
2023/05/20 02:18:07;;;;;;;9.93;5.18;;;;;;;12.53;67.09;101913.72;7394719;19;20027;-68
2023/05/20 02:20:37;;;;;;;6.50;4.68;;;;;;;12.45;67.07;101905.06;7394631;19;20038;-67
2023/05/20 02:23:07;;;;;;;7.95;4.85;;;;;;;12.50;67.09;101911.13;7393619;19;20495;-67
2023/05/20 02:25:36;;;;;;;7.60;5.05;;;;;;;12.49;67.08;101916.44;7401275;19;20018;-67
2023/05/20 02:28:04;;;;;;;8.82;4.60;;;;;;;12.46;67.23;101911.19;7402045;19;20023;-67
2023/05/20 02:30:35;;;;;;;11.80;5.20;;;;;;;12.40;67.54;101909.50;7401630;19;20014;-67
2023/05/20 02:33:04;;;;;;;7.95;5.07;;;;;;;12.39;67.54;101915.63;7401264;19;20018;-68
2023/05/20 02:35:32;;;;;;;4.78;4.25;;;;;;;12.34;67.43;101914.81;7401728;19;20047;-68
2023/05/20 02:38:01;;;;;;;6.18;4.78;;;;;;;12.30;67.59;101916.59;7400391;19;20024;-68
2023/05/20 02:40:29;;;;;;;8.48;5.47;;;;;;;12.26;67.78;101917.53;7401561;19;20098;-68
2023/05/20 02:42:58;;;;;;;9.32;4.75;;;;;;;12.23;67.72;101920.19;7401044;19;20376;-68
2023/05/20 02:45:26;;;;;;;7.47;4.45;;;;;;;12.21;67.85;101928.09;7401127;19;20031;-68
2023/05/20 02:47:57;;;;;;;8.27;4.93;;;;;;;12.18;67.86;101922.88;7401409;19;20033;-68
2023/05/20 02:50:26;;;;;;;7.20;4.60;;;;;;;12.17;68.17;101923.75;7401817;19;20029;-68
2023/05/20 02:52:54;;;;;;;10.18;5.18;;;;;;;12.16;68.29;101929.03;7400823;19;20026;-68
2023/05/20 02:55:23;;;;;;;7.55;4.78;;;;;;;12.12;68.25;101930.81;7401205;19;20070;-68
2023/05/20 02:57:51;;;;;;;7.15;4.88;;;;;;;12.09;68.49;101928.19;7400974;19;20015;-68
2023/05/20 03:00:22;;;;;;;7.93;4.55;;;;;;;12.06;68.40;101929.09;7401074;19;20015;-68
2023/05/20 03:02:50;;;;;;;5.88;5.28;;;;;;;12.07;68.72;101935.25;7400128;19;20010;-68
2023/05/20 03:05:21;;;;;;;7.13;4.97;;;;;;;12.05;68.76;101931.75;7397951;19;20478;-69
2023/05/20 03:07:50;;;;;;;9.27;5.50;;;;;;;12.03;68.90;101936.16;7401146;19;20015;-68
2023/05/20 03:10:18;;;;;;;7.85;4.85;;;;;;;12.02;68.85;101937.06;7400696;19;20014;-68
2023/05/20 03:12:47;;;;;;;9.05;6.00;;;;;;;11.99;69.08;101944.94;7399752;19;20511;-68
2023/05/20 03:15:15;;;;;;;7.60;4.97;;;;;;;11.98;69.11;101941.47;7400035;19;20023;-68
2023/05/20 03:17:44;;;;;;;7.88;5.40;;;;;;;11.97;69.23;101939.72;7400479;19;20014;-67
2023/05/20 03:20:15;;;;;;;7.75;5.13;;;;;;;11.96;69.25;101935.34;7400019;19;20018;-68
2023/05/20 03:22:46;;;;;;;7.32;4.40;;;;;;;11.96;69.32;101935.34;7400221;19;20047;-67
2023/05/20 03:25:15;;;;;;;7.32;4.50;;;;;;;11.95;69.42;101930.06;7398545;19;20011;-67
2023/05/20 03:27:43;;;;;;;5.90;4.38;;;;;;;11.94;69.42;101928.31;7400135;19;20032;-67
2023/05/20 03:30:12;;;;;;;8.15;4.90;;;;;;;11.95;69.67;101935.31;7399992;19;20018;-67
2023/05/20 03:32:41;;;;;;;10.13;5.72;;;;;;;11.94;69.69;101930.94;7400541;19;20011;-70
2023/05/20 03:35:10;;;;;;;8.27;5.40;;;;;;;11.93;69.74;101927.44;7397627;19;20019;-70
2023/05/20 03:37:39;;;;;;;6.45;5.10;;;;;;;11.92;69.94;101928.34;7398379;19;20025;-70
2023/05/20 03:40:11;;;;;;;8.30;5.35;;;;;;;11.91;70.16;101923.94;7400148;19;20066;-70
2023/05/20 03:42:40;;;;;;;7.50;5.47;;;;;;;11.85;70.06;101921.38;7399866;19;20035;-70
2023/05/20 03:45:10;;;;;;;10.40;5.18;;;;;;;11.89;69.87;101931.84;7397606;19;20015;-70
2023/05/20 03:47:39;;;;;;;9.35;5.50;;;;;;;11.90;70.21;101928.34;7399267;19;20019;-70
2023/05/20 03:50:08;;;;;;;8.13;4.97;;;;;;;11.90;70.45;101935.34;7399410;19;20109;-70
2023/05/20 03:52:37;;;;;;;7.20;5.30;;;;;;;11.91;70.40;101926.59;7399071;19;20018;-70
2023/05/20 03:55:06;;;;;;;8.27;5.68;;;;;;;11.92;70.35;101935.34;7399191;19;20018;-70
2023/05/20 03:57:38;;;;;;;9.52;6.30;;;;;;;11.93;70.67;101937.09;7399156;19;20039;-70
2023/05/20 04:00:10;;;;;;;9.10;6.03;;;;;;;11.93;70.60;101937.97;7399570;19;20015;-70
2023/05/20 04:02:45;;;;;;;20.25;12.65;;;;;;;11.95;70.69;101937.94;7398349;19;20019;-70
2023/05/20 04:05:14;;;;;;;7.30;5.38;;;;;;;11.92;70.73;101930.06;7396520;19;20098;-70
2023/05/20 04:07:42;;;;;;;8.52;6.70;;;;;;;11.94;70.77;101933.56;7398597;19;20024;-70
2023/05/20 04:10:12;;;;;;;9.15;5.47;;;;;;;11.95;70.72;101935.31;7398517;19;20037;-70
2023/05/20 04:12:43;;;;;;;12.43;6.90;;;;;;;11.95;70.86;101930.06;7398351;19;20019;-70
2023/05/20 04:15:13;;;;;;;8.15;5.63;;;;;;;11.95;70.90;101928.28;7398221;19;20481;-70
2023/05/20 04:17:47;;;;;;;10.88;5.88;;;;;;;11.96;70.96;101927.44;7398464;19;20021;-70
2023/05/20 04:20:16;;;;;;;6.82;5.30;;;;;;;11.97;70.87;101930.97;7398888;19;20027;-70
2023/05/20 04:22:44;;;;;;;7.75;5.07;;;;;;;11.98;71.01;101924.78;7397510;19;20074;-70
2023/05/20 04:25:14;;;;;;;7.97;5.47;;;;;;;11.97;71.05;101923.06;7396740;19;20026;-70
2023/05/20 04:27:45;;;;;;;7.07;5.57;;;;;;;11.96;71.17;101916.94;7397941;19;20018;-69
2023/05/20 04:30:15;;;;;;;8.75;5.30;;;;;;;11.97;71.16;101920.44;7397721;19;20389;-70
2023/05/20 04:32:44;;;;;;;6.80;4.97;;;;;;;11.97;71.27;101913.41;7397333;19;20019;-70
2023/05/20 04:35:13;;;;;;;8.52;5.05;;;;;;;11.98;71.28;101912.53;7397828;19;20090;-69
2023/05/20 04:37:51;;;;;;;8.05;5.25;;;;;;;12.00;71.55;101910.75;7397150;19;20042;-70
2023/05/20 04:40:20;;;;;;;6.28;4.80;;;;;;;11.99;71.53;101905.50;7399983;19;20010;-70
2023/05/20 04:42:51;;;;;;;8.07;5.57;;;;;;;11.98;71.73;101901.13;7397100;19;20015;-70
2023/05/20 04:45:22;;;;;;;7.75;5.60;;;;;;;11.99;71.79;101913.41;7396226;19;20014;-70
2023/05/20 04:47:52;;;;;;;10.07;5.82;;;;;;;11.99;71.67;101911.66;7397033;19;20007;-70
2023/05/20 04:50:20;;;;;;;9.10;5.40;;;;;;;11.99;71.82;101910.75;7397408;19;20374;-70
2023/05/20 04:52:49;;;;;;;7.13;4.63;;;;;;;12.01;71.84;101911.63;7396894;19;20035;-70
2023/05/20 04:55:18;;;;;;;9.57;5.60;;;;;;;12.05;71.82;101915.97;7397165;19;20015;-70
2023/05/20 04:57:47;;;;;;;7.35;5.22;;;;;;;12.05;71.85;101911.56;7397051;19;20019;-70
2023/05/20 05:00:18;;;;;;;8.13;5.15;;;;;;;12.06;71.97;101900.16;7396697;19;20575;-70
2023/05/20 05:02:46;;;;;;;10.68;5.72;;;;;;;12.08;71.90;101902.81;7397495;19;20022;-70
2023/05/20 05:05:15;;;;;;;8.10;5.50;;;;;;;12.09;72.00;101901.91;7395426;19;20022;-70
2023/05/20 05:07:43;;;;;;;8.02;5.25;;;;;;;12.10;72.00;101906.28;7396748;19;20022;-70
2023/05/20 05:10:14;;;;;;;7.18;5.28;;;;;;;12.11;72.10;101902.75;7396799;19;20035;-70
2023/05/20 05:12:42;;;;;;;12.57;5.85;;;;;;;12.13;72.21;101900.13;7396865;19;20014;-70
2023/05/20 05:15:12;;;;;;;11.00;7.28;;;;;;;12.15;72.07;101907.09;7396222;19;20018;-70
2023/05/20 05:17:43;;;;;;;9.13;6.18;;;;;;;12.16;72.06;101908.84;7395996;19;20018;-70
2023/05/20 05:20:12;;;;;;;12.32;8.25;;;;;;;12.15;72.12;101904.47;7396064;19;20478;-70
2023/05/20 05:22:41;;;;;;;9.63;6.97;;;;;;;12.18;72.18;101904.47;7395545;19;20031;-70
2023/05/20 05:25:10;;;;;;;8.68;5.57;;;;;;;12.17;72.40;101900.09;7395350;19;20014;-70
2023/05/20 05:27:39;;;;;;;12.45;7.00;;;;;;;12.22;72.07;101903.53;7396653;19;20436;-70
2023/05/20 05:30:10;;;;;;;9.52;5.97;;;;;;;12.25;72.32;101917.56;7396138;19;20018;-70
2023/05/20 05:32:39;;;;;;;10.65;6.10;;;;;;;12.27;72.44;101913.13;7396149;19;20030;-70
2023/05/20 05:35:11;;;;;;;10.80;6.65;;;;;;;12.28;72.29;101906.97;7395696;19;20022;-70
2023/05/20 05:37:39;;;;;;;9.45;6.32;;;;;;;12.30;72.29;101908.72;7395988;19;20078;-70
2023/05/20 05:40:09;;;;;;;10.02;6.57;;;;;;;12.33;72.32;101910.44;7395311;19;20015;-70
2023/05/20 05:42:38;;;;;;;10.35;6.95;;;;;;;12.36;72.30;101911.28;7395543;19;20026;-70
2023/05/20 05:45:07;;;;;;;10.90;6.20;;;;;;;12.39;72.23;101905.97;7394745;19;20014;-70
2023/05/20 05:47:36;;;;;;;9.68;6.82;;;;;;;12.41;72.25;101905.97;7395385;19;20022;-70
2023/05/20 05:50:04;;;;;;;8.60;6.75;;;;;;;12.44;72.22;101912.97;7395606;19;20071;-70
2023/05/20 05:52:36;;;;;;;16.60;9.77;;;;;;;12.46;72.33;101895.38;7394964;19;20014;-70
2023/05/20 05:55:04;;;;;;;11.55;6.57;;;;;;;12.49;72.34;101906.75;7395865;19;20022;-70
2023/05/20 05:57:33;;;;;;;9.80;6.60;;;;;;;12.50;72.32;101908.50;7395274;19;20032;-70
2023/05/20 06:00:02;;;;;;;11.13;6.55;;;;;;;12.51;72.24;101919.88;7392904;19;20094;-70
2023/05/20 06:02:34;;;;;;;11.70;7.10;;;;;;;12.53;72.40;101916.34;7394782;19;20031;-72
2023/05/20 06:05:03;;;;;;;12.45;6.95;;;;;;;12.57;72.55;101921.59;7394579;19;20033;-71
2023/05/20 06:07:31;;;;;;;8.10;6.63;;;;;;;12.57;72.28;101917.19;7394869;19;20018;-72
2023/05/20 06:10:02;;;;;;;12.40;7.63;;;;;;;12.59;72.39;101919.84;7394401;19;20027;-71
2023/05/20 06:12:31;;;;;;;10.07;6.75;;;;;;;12.60;72.38;101914.53;7395294;19;20018;-71
2023/05/20 06:14:59;;;;;;;12.85;7.25;;;;;;;12.62;72.30;101904.84;7394783;19;20031;-71
2023/05/20 06:17:28;;;;;;;13.02;8.45;;;;;;;12.65;72.34;101906.56;7394266;19;20036;-71
2023/05/20 06:19:56;;;;;;;13.63;8.30;;;;;;;12.68;72.45;101906.56;7394647;19;20082;-71
2023/05/20 06:22:25;;;;;;;12.68;6.95;;;;;;;12.71;72.27;101907.38;7394533;19;20091;-71
2023/05/20 06:24:55;;;;;;;11.32;7.10;;;;;;;12.74;72.24;101913.50;7392477;19;20019;-71
2023/05/20 06:27:26;;;;;;;10.80;7.30;;;;;;;12.77;72.38;101914.31;7394377;19;20066;-71
2023/05/20 06:29:54;;;;;;;10.43;7.07;;;;;;;12.79;72.02;101909.03;7395040;19;20028;-70
2023/05/20 06:32:23;;;;;;;14.93;7.30;;;;;;;12.79;72.02;101902.03;7394161;19;20074;-69
2023/05/20 06:34:51;;;;;;;9.90;7.55;;;;;;;12.87;72.14;101910.69;7392620;19;20022;-70
2023/05/20 06:37:23;;;;;;;13.18;7.38;;;;;;;12.92;71.81;101917.69;7393662;19;20506;-69
2023/05/20 06:39:52;;;;;;;10.85;6.53;;;;;;;12.96;72.03;101917.59;7392774;19;20007;-70
2023/05/20 06:42:21;;;;;;;10.20;7.25;;;;;;;12.99;71.85;101917.56;7393620;19;20022;-70
2023/05/20 06:44:52;;;;;;;14.13;8.10;;;;;;;13.03;71.69;101913.13;7391432;19;20022;-70
2023/05/20 06:47:22;;;;;;;11.90;6.93;;;;;;;13.06;71.80;101917.50;7394320;19;20086;-70
2023/05/20 06:49:50;;;;;;;8.35;6.35;;;;;;;13.08;71.57;101919.22;7393466;19;20022;-70
2023/05/20 06:52:19;;;;;;;9.00;6.90;;;;;;;13.13;71.64;101908.59;7391638;19;20018;-70
2023/05/20 06:54:47;;;;;;;13.32;8.43;;;;;;;13.17;71.57;101905.91;7391694;19;20078;-70
2023/05/20 06:57:16;;;;;;;11.63;8.45;;;;;;;13.24;71.64;101908.47;7393800;19;20031;-70
2023/05/20 06:59:44;;;;;;;11.55;7.30;;;;;;;13.28;71.16;101905.78;7393695;19;20028;-70
2023/05/20 07:02:15;;;;;;;15.52;8.65;;;;;;;13.34;71.22;101897.78;7393320;19;20485;-69
2023/05/20 07:04:44;;;;;;;12.27;7.78;;;;;;;13.38;70.94;101901.25;7391248;19;20023;-70
2023/05/20 07:07:13;;;;;;;9.15;7.25;;;;;;;13.43;71.05;101896.75;7393249;19;20344;-69
2023/05/20 07:09:42;;;;;;;14.85;10.52;;;;;;;13.49;70.91;101893.19;7393610;19;20031;-70
2023/05/20 07:12:10;;;;;;;18.00;11.48;;;;;;;13.52;70.77;101894.00;7400205;19;20471;-70
2023/05/20 07:14:39;;;;;;;13.63;8.18;;;;;;;13.57;70.70;101888.66;7397716;19;20018;-69
2023/05/20 07:17:08;;;;;;;13.30;9.07;;;;;;;13.63;70.60;101890.31;7399597;19;20011;-69
2023/05/20 07:19:39;;;;;;;12.60;8.88;;;;;;;13.68;70.54;101885.84;7400094;19;20102;-68
2023/05/20 07:22:07;;;;;;;11.57;8.88;;;;;;;13.73;70.18;101884.00;7399106;19;20029;-70
2023/05/20 07:24:37;;;;;;;15.00;8.50;;;;;;;13.77;70.35;101869.84;7398080;19;20019;-70
2023/05/20 07:27:06;;;;;;;11.52;8.80;;;;;;;13.82;70.16;101862.72;7399669;19;20031;-70
2023/05/20 07:29:34;;;;;;;15.90;9.48;;;;;;;13.90;70.02;101867.00;7399662;19;20028;-69
2023/05/20 07:32:04;;;;;;;14.32;9.50;;;;;;;13.94;70.09;101861.66;7398938;19;20432;-68
2023/05/20 07:34:32;;;;;;;14.43;9.52;;;;;;;14.00;69.75;101863.31;7397346;19;20011;-71
2023/05/20 07:37:04;;;;;;;11.93;9.40;;;;;;;14.04;69.47;101864.13;7399319;19;20022;-71
2023/05/20 07:39:32;;;;;;;13.07;9.32;;;;;;;14.10;69.42;101861.38;7397423;19;20014;-71
2023/05/20 07:42:00;;;;;;;14.00;9.75;;;;;;;14.13;69.26;101854.28;7399412;19;20023;-71
2023/05/20 07:44:29;;;;;;;12.77;9.38;;;;;;;14.21;69.21;101855.91;7397277;19;20022;-71
2023/05/20 07:46:58;;;;;;;13.50;9.82;;;;;;;14.28;69.16;101857.50;7397392;19;20014;-71
2023/05/20 07:49:26;;;;;;;12.50;10.07;;;;;;;14.37;68.83;101856.47;7398449;19;20590;-70
2023/05/20 07:51:55;;;;;;;17.15;10.23;;;;;;;14.43;68.59;101844.03;7398663;19;20443;-71
2023/05/20 07:54:26;;;;;;;14.60;10.27;;;;;;;14.50;68.40;101850.91;7397393;19;20031;-70
2023/05/20 07:56:54;;;;;;;14.52;10.45;;;;;;;14.55;68.04;101848.19;7398528;19;20019;-71
2023/05/20 07:59:23;;;;;;;14.25;10.70;;;;;;;14.61;67.92;101847.19;7396685;19;20475;-71
2023/05/20 08:01:51;;;;;;;16.60;10.50;;;;;;;14.66;67.99;101846.22;7398645;19;20019;-70
2023/05/20 08:04:20;;;;;;;12.95;10.20;;;;;;;14.71;67.55;101843.47;7396896;19;20022;-71
2023/05/20 08:06:49;;;;;;;17.38;10.43;;;;;;;14.78;67.65;101845.06;7396775;19;20015;-70
2023/05/20 08:09:18;;;;;;;15.93;10.27;;;;;;;14.85;67.37;101850.22;7398408;19;20019;-71
2023/05/20 08:11:49;;;;;;;14.43;10.38;;;;;;;14.88;67.05;101842.25;7398087;19;20496;-71
2023/05/20 08:14:17;;;;;;;14.55;9.63;;;;;;;14.93;67.11;101835.06;7397041;19;20026;-72
2023/05/20 08:16:45;;;;;;;14.25;9.73;;;;;;;14.95;66.59;101842.06;7397898;19;20015;-71
2023/05/20 08:19:14;;;;;;;15.80;10.02;;;;;;;14.94;66.62;101842.97;7398307;19;20031;-71
2023/05/20 08:21:42;;;;;;;13.52;10.00;;;;;;;14.93;66.89;101845.66;7396315;19;20022;-71
2023/05/20 08:24:11;;;;;;;14.23;10.70;;;;;;;14.90;66.46;101843.94;7395969;19;20023;-70
2023/05/20 08:26:39;;;;;;;14.40;10.18;;;;;;;14.86;66.83;101826.44;7396101;19;20038;-71
2023/05/20 08:29:11;;;;;;;16.27;11.15;;;;;;;14.87;66.61;101835.22;7397079;19;20623;-71
2023/05/20 08:31:39;;;;;;;13.73;10.00;;;;;;;14.84;66.77;101833.50;7397867;19;20018;-70
2023/05/20 08:34:07;;;;;;;15.32;9.93;;;;;;;14.78;66.89;101820.44;7396090;19;20035;-70
2023/05/20 08:36:36;;;;;;;17.90;11.60;;;;;;;14.82;66.57;101836.19;7396870;19;20368;-71
2023/05/20 08:39:04;;;;;;;14.80;9.70;;;;;;;14.85;66.81;101837.00;7396473;19;20031;-72
2023/05/20 08:41:33;;;;;;;14.93;9.90;;;;;;;14.87;66.53;101833.44;7397458;19;20031;-72
2023/05/20 08:44:03;;;;;;;13.90;9.00;;;;;;;14.89;66.54;101843.97;7395394;19;20428;-70
2023/05/20 08:46:37;;;;;;;15.43;10.02;;;;;;;14.89;66.64;101841.34;7395635;19;20017;-69
2023/05/20 08:49:06;;;;;;;16.80;10.50;;;;;;;14.90;66.51;101835.13;7397351;19;20040;-70
2023/05/20 08:51:35;;;;;;;15.55;10.32;;;;;;;14.88;66.45;101829.88;7396325;19;20501;-70
2023/05/20 08:54:04;;;;;;;17.80;10.68;;;;;;;14.91;66.39;101834.22;7395159;19;20391;-71
2023/05/20 08:56:33;;;;;;;13.95;10.18;;;;;;;14.87;66.35;101822.00;7395898;19;20493;-71
2023/05/20 08:59:02;;;;;;;13.35;10.15;;;;;;;14.89;66.39;101829.00;7396559;19;20039;-70
2023/05/20 09:01:30;;;;;;;14.63;10.95;;;;;;;14.89;66.29;101829.00;7396410;19;20090;-71
2023/05/20 09:04:01;;;;;;;15.63;10.23;;;;;;;14.90;66.23;101833.38;7395261;19;20044;-71
2023/05/20 09:06:30;;;;;;;15.75;9.50;;;;;;;14.93;66.15;101835.94;7395650;19;20019;-71
2023/05/20 09:08:58;;;;;;;15.90;9.68;;;;;;;15.03;66.13;101833.09;7396261;19;20556;-71
2023/05/20 09:11:27;;;;;;;13.77;9.70;;;;;;;15.11;66.06;101836.41;7396650;19;20031;-71
2023/05/20 09:13:55;;;;;;;16.55;9.95;;;;;;;15.18;65.81;101835.38;7395188;19;20035;-71
2023/05/20 09:16:24;;;;;;;13.75;10.98;;;;;;;15.23;65.34;101832.63;7395937;19;20485;-71
2023/05/20 09:18:57;;;;;;;14.93;9.48;;;;;;;15.23;65.07;101824.72;7396297;19;20082;-71
2023/05/20 09:21:31;;;;;;;13.30;9.23;;;;;;;15.29;65.11;101824.53;7395958;19;20403;-71
2023/05/20 09:23:59;;;;;;;13.27;9.30;;;;;;;15.32;64.95;101835.03;7395360;19;20086;-70
2023/05/20 09:26:29;;;;;;;13.00;9.18;;;;;;;15.38;64.99;101826.09;7394625;19;20014;-70
2023/05/20 09:28:58;;;;;;;15.50;9.43;;;;;;;15.42;64.84;101827.78;7395827;19;20023;-71
2023/05/20 09:31:28;;;;;;;14.73;10.13;;;;;;;15.49;64.39;101826.69;7395820;19;20027;-70
2023/05/20 09:33:57;;;;;;;13.27;10.02;;;;;;;15.52;64.48;101825.75;7391317;19;20378;-70
2023/05/20 09:36:27;;;;;;;14.25;10.32;;;;;;;15.54;64.24;101818.66;7395637;19;20022;-71
2023/05/20 09:39:04;;;;;;;11.98;9.15;;;;;;;15.63;63.96;101819.28;7394990;19;20023;-70
2023/05/20 09:41:38;;;;;;;13.68;9.77;;;;;;;15.77;63.78;101818.03;7395806;19;20014;-69
2023/05/20 09:44:07;;;;;;;15.57;10.07;;;;;;;15.85;63.37;101816.09;7393883;19;20014;-71
2023/05/20 09:46:36;;;;;;;11.23;9.00;;;;;;;15.90;63.25;101806.25;7394151;19;20018;-70
2023/05/20 09:49:13;;;;;;;15.43;10.20;;;;;;;15.93;62.87;101811.47;7394850;19;20010;-71
2023/05/20 09:51:43;;;;;;;14.32;11.05;;;;;;;15.94;62.67;101799.97;7395581;19;20025;-71
2023/05/20 09:54:15;;;;;;;13.13;10.38;;;;;;;16.03;62.56;101798.84;7394514;19;20041;-69
2023/05/20 09:56:45;;;;;;;14.18;10.70;;;;;;;16.11;62.61;101798.63;7394705;19;20508;-70
2023/05/20 09:59:16;;;;;;;16.20;10.30;;;;;;;16.20;62.42;101802.78;7395043;19;20363;-70
2023/05/20 10:01:53;;;;;;;14.98;9.55;;;;;;;16.25;61.99;101803.53;7395834;19;20018;-69
2023/05/20 10:04:22;;;;;;;15.73;10.55;;;;;;;16.34;61.85;101805.03;7393296;19;20107;-70
2023/05/20 10:07:19;;;;;;;16.40;10.27;;;;;;;16.44;61.59;101795.91;7393526;19;20018;-69
2023/05/20 10:10:02;;;;;;;15.05;10.02;;;;;;;16.57;61.31;101792.00;7394488;19;20041;-70
2023/05/20 10:12:53;;;;;;;12.30;9.95;;;;;;;16.70;60.59;101800.44;7400922;19;20074;-67
2023/05/20 10:15:28;;;;;;;13.82;10.32;;;;;;;16.82;60.53;101801.84;7395443;19;20022;-66
2023/05/20 10:18:07;;;;;;;15.98;10.98;;;;;;;16.94;59.67;101800.63;7394293;19;20031;-66
2023/05/20 10:20:46;;;;;;;16.27;11.80;;;;;;;17.07;59.55;101796.69;7394394;19;20038;-67
2023/05/20 10:23:23;;;;;;;15.60;10.02;;;;;;;17.20;58.71;101788.31;7393485;19;20041;-67
2023/05/20 10:25:56;;;;;;;17.30;11.13;;;;;;;17.28;58.91;101777.47;7393571;19;20489;-67
2023/05/20 10:28:32;;;;;;;15.85;10.43;;;;;;;17.40;58.34;101782.34;7394930;19;20015;-69
2023/05/20 10:31:01;;;;;;;13.60;9.45;;;;;;;17.47;58.23;101775.91;7395493;19;20078;-69
2023/05/20 10:33:30;;;;;;;15.20;10.23;;;;;;;17.59;57.83;101772.84;7392932;19;20022;-67
2023/05/20 10:36:01;;;;;;;11.77;9.98;;;;;;;17.70;57.72;101768.94;7394156;19;20098;-66
2023/05/20 10:38:29;;;;;;;14.25;10.35;;;;;;;17.80;57.22;101764.16;7393976;19;20015;-68
2023/05/20 10:41:10;;;;;;;13.85;10.07;;;;;;;17.89;56.46;101770.03;7394657;19;20027;-67
2023/05/20 10:43:39;;;;;;;15.40;9.88;;;;;;;17.96;57.10;101768.03;7393254;19;20015;-66
2023/05/20 10:46:07;;;;;;;14.02;9.57;;;;;;;18.05;56.91;101766.84;7398564;19;20014;-67
2023/05/20 10:48:36;;;;;;;14.73;10.20;;;;;;;18.16;56.41;101758.44;7401256;19;20032;-67
2023/05/20 10:51:05;;;;;;;13.13;9.32;;;;;;;18.24;55.96;101754.56;7401205;19;20534;-68
2023/05/20 10:53:42;;;;;;;11.48;8.82;;;;;;;18.34;56.07;101757.75;7399634;19;20018;-65
2023/05/20 10:56:22;;;;;;;11.30;8.70;;;;;;;18.46;55.52;101755.56;7400400;19;20017;-67
2023/05/20 10:58:52;;;;;;;13.90;9.82;;;;;;;18.55;55.39;101736.59;7400016;19;20449;-67
2023/05/20 11:01:25;;;;;;;14.45;10.32;;;;;;;18.63;55.46;101750.44;7400213;19;20078;-67
2023/05/20 11:03:55;;;;;;;13.68;10.40;;;;;;;18.68;55.10;101742.31;7399342;19;20023;-67
2023/05/20 11:06:28;;;;;;;14.88;10.75;;;;;;;18.69;54.82;101739.56;7399714;19;20481;-67
2023/05/20 11:08:57;;;;;;;13.63;10.85;;;;;;;18.80;54.71;101739.13;7400568;19;20018;-68
2023/05/20 11:11:28;;;;;;;17.38;10.85;;;;;;;18.88;54.08;101729.06;7400140;19;20021;-67
2023/05/20 11:13:59;;;;;;;14.32;11.20;;;;;;;19.00;53.64;101727.72;7398955;19;20022;-67
2023/05/20 11:16:28;;;;;;;16.20;11.85;;;;;;;19.16;53.54;101727.94;7399739;19;20038;-66
2023/05/20 11:18:56;;;;;;;15.13;10.98;;;;;;;19.28;52.63;101723.88;7399452;19;20019;-67
2023/05/20 11:21:24;;;;;;;16.08;11.77;;;;;;;19.30;53.02;101719.38;7400017;19;20018;-68
2023/05/20 11:23:53;;;;;;;17.80;11.70;;;;;;;19.31;52.49;101713.13;7398879;19;20036;-69
2023/05/20 11:26:22;;;;;;;17.17;11.65;;;;;;;19.29;52.94;101714.97;7399679;19;20078;-67
2023/05/20 11:28:54;;;;;;;15.82;11.65;;;;;;;19.31;51.60;101710.47;7399718;19;20018;-66
2023/05/20 11:31:23;;;;;;;17.48;11.55;;;;;;;19.38;52.03;101711.06;7399868;19;20027;-67